sensor_id;sensor_type;location;lat;lon;timestamp;temperature;humidity
2453;DHT22;63678;47.994;7.854;2023-03-01T00:01:28;-0.20;99.90
2453;DHT22;63678;47.994;7.854;2023-03-01T00:04:02;-0.30;99.90
2453;DHT22;63678;47.994;7.854;2023-03-01T00:06:34;-0.30;99.90
2453;DHT22;63678;47.994;7.854;2023-03-01T00:09:07;-0.20;99.90
2453;DHT22;63678;47.994;7.854;2023-03-01T00:11:40;-0.20;99.90
2453;DHT22;63678;47.994;7.854;2023-03-01T00:14:13;-0.20;99.90
2453;DHT22;63678;47.994;7.854;2023-03-01T00:16:47;-0.20;99.90
2453;DHT22;63678;47.994;7.854;2023-03-01T00:19:20;-0.30;99.90
2453;DHT22;63678;47.994;7.854;2023-03-01T00:21:54;-0.40;99.90
2453;DHT22;63678;47.994;7.854;2023-03-01T00:24:26;-0.40;99.90
2453;DHT22;63678;47.994;7.854;2023-03-01T00:26:58;1.50;99.90
2453;DHT22;63678;47.994;7.854;2023-03-01T00:29:31;-0.40;99.90
2453;DHT22;63678;47.994;7.854;2023-03-01T00:32:04;-0.40;99.90
2453;DHT22;63678;47.994;7.854;2023-03-01T00:34:39;-0.40;99.90
2453;DHT22;63678;47.994;7.854;2023-03-01T00:37:13;-0.30;99.90
2453;DHT22;63678;47.994;7.854;2023-03-01T00:39:46;-0.20;99.90
2453;DHT22;63678;47.994;7.854;2023-03-01T00:42:36;-0.30;99.90
2453;DHT22;63678;47.994;7.854;2023-03-01T00:45:08;-0.30;99.90
2453;DHT22;63678;47.994;7.854;2023-03-01T00:47:41;-0.20;99.90
2453;DHT22;63678;47.994;7.854;2023-03-01T00:50:35;-0.10;99.90
2453;DHT22;63678;47.994;7.854;2023-03-01T00:53:28;-0.10;99.90
2453;DHT22;63678;47.994;7.854;2023-03-01T00:56:03;-0.20;99.90
2453;DHT22;63678;47.994;7.854;2023-03-01T00:58:36;-0.20;99.90
2453;DHT22;63678;47.994;7.854;2023-03-01T01:01:16;-0.20;99.90
2453;DHT22;63678;47.994;7.854;2023-03-01T01:04:08;-0.20;99.90
2453;DHT22;63678;47.994;7.854;2023-03-01T01:07:03;-0.20;99.90
2453;DHT22;63678;47.994;7.854;2023-03-01T01:09:36;-0.30;99.90
2453;DHT22;63678;47.994;7.854;2023-03-01T01:12:09;-0.30;99.90
2453;DHT22;63678;47.994;7.854;2023-03-01T01:14:41;-0.30;99.90
2453;DHT22;63678;47.994;7.854;2023-03-01T01:17:13;-0.40;99.90
2453;DHT22;63678;47.994;7.854;2023-03-01T01:19:46;-0.40;99.90
2453;DHT22;63678;47.994;7.854;2023-03-01T01:22:18;-0.40;99.90
2453;DHT22;63678;47.994;7.854;2023-03-01T01:24:50;-0.10;99.90
2453;DHT22;63678;47.994;7.854;2023-03-01T01:27:23;0.00;99.90
2453;DHT22;63678;47.994;7.854;2023-03-01T01:29:55;0.10;99.90
2453;DHT22;63678;47.994;7.854;2023-03-01T01:32:28;0.10;99.90
2453;DHT22;63678;47.994;7.854;2023-03-01T01:35:00;0.10;99.90
2453;DHT22;63678;47.994;7.854;2023-03-01T01:37:34;0.10;99.90
2453;DHT22;63678;47.994;7.854;2023-03-01T01:40:08;0.10;99.90
2453;DHT22;63678;47.994;7.854;2023-03-01T01:42:41;0.10;99.90
2453;DHT22;63678;47.994;7.854;2023-03-01T01:45:31;0.00;99.90
2453;DHT22;63678;47.994;7.854;2023-03-01T01:48:12;0.00;99.90
2453;DHT22;63678;47.994;7.854;2023-03-01T01:50:54;-0.10;99.90
2453;DHT22;63678;47.994;7.854;2023-03-01T01:53:31;-0.30;99.90
2453;DHT22;63678;47.994;7.854;2023-03-01T01:56:07;-0.30;99.90
2453;DHT22;63678;47.994;7.854;2023-03-01T01:58:42;-0.40;99.90
2453;DHT22;63678;47.994;7.854;2023-03-01T02:03:51;-0.50;99.90
2453;DHT22;63678;47.994;7.854;2023-03-01T02:06:34;-0.50;99.90
2453;DHT22;63678;47.994;7.854;2023-03-01T02:09:15;-0.60;99.90
2453;DHT22;63678;47.994;7.854;2023-03-01T02:11:51;-0.70;99.90
2453;DHT22;63678;47.994;7.854;2023-03-01T02:14:24;-0.70;99.90
2453;DHT22;63678;47.994;7.854;2023-03-01T02:16:56;-0.70;99.90
2453;DHT22;63678;47.994;7.854;2023-03-01T02:19:54;-0.70;99.90
2453;DHT22;63678;47.994;7.854;2023-03-01T02:22:35;-0.60;99.90
2453;DHT22;63678;47.994;7.854;2023-03-01T02:30:50;-0.70;99.90
2453;DHT22;63678;47.994;7.854;2023-03-01T02:33:41;-0.80;99.90
2453;DHT22;63678;47.994;7.854;2023-03-01T02:36:20;-0.80;99.90
2453;DHT22;63678;47.994;7.854;2023-03-01T02:38:58;-0.80;99.90
2453;DHT22;63678;47.994;7.854;2023-03-01T02:41:37;-0.80;99.90
2453;DHT22;63678;47.994;7.854;2023-03-01T02:44:10;-0.80;99.90
2453;DHT22;63678;47.994;7.854;2023-03-01T02:46:46;-0.70;99.90
2453;DHT22;63678;47.994;7.854;2023-03-01T02:49:38;-0.70;99.90
2453;DHT22;63678;47.994;7.854;2023-03-01T02:52:34;-0.70;99.90
2453;DHT22;63678;47.994;7.854;2023-03-01T02:55:15;-0.70;99.90
2453;DHT22;63678;47.994;7.854;2023-03-01T02:57:49;-0.70;99.90
2453;DHT22;63678;47.994;7.854;2023-03-01T03:00:28;-0.80;99.90
2453;DHT22;63678;47.994;7.854;2023-03-01T03:03:05;-0.80;99.90
2453;DHT22;63678;47.994;7.854;2023-03-01T03:05:38;-0.80;99.90
2453;DHT22;63678;47.994;7.854;2023-03-01T03:10:44;-0.90;99.90
2453;DHT22;63678;47.994;7.854;2023-03-01T03:13:19;-0.80;99.90
2453;DHT22;63678;47.994;7.854;2023-03-01T03:15:51;-1.00;99.90
2453;DHT22;63678;47.994;7.854;2023-03-01T03:18:24;-0.80;99.90
2453;DHT22;63678;47.994;7.854;2023-03-01T03:20:59;-0.70;99.90
2453;DHT22;63678;47.994;7.854;2023-03-01T03:23:32;-0.70;99.90
2453;DHT22;63678;47.994;7.854;2023-03-01T03:26:05;-0.70;99.90
2453;DHT22;63678;47.994;7.854;2023-03-01T03:28:38;-0.70;99.90
2453;DHT22;63678;47.994;7.854;2023-03-01T03:31:11;-0.70;99.90
2453;DHT22;63678;47.994;7.854;2023-03-01T03:33:44;-0.60;99.90
2453;DHT22;63678;47.994;7.854;2023-03-01T03:36:37;-0.50;99.90
2453;DHT22;63678;47.994;7.854;2023-03-01T03:39:10;-0.40;99.90
2453;DHT22;63678;47.994;7.854;2023-03-01T03:44:17;-0.30;99.90
2453;DHT22;63678;47.994;7.854;2023-03-01T03:46:49;-0.20;99.90
2453;DHT22;63678;47.994;7.854;2023-03-01T03:49:21;-0.20;99.90
2453;DHT22;63678;47.994;7.854;2023-03-01T03:51:54;-0.20;99.90
2453;DHT22;63678;47.994;7.854;2023-03-01T03:56:59;-0.20;99.90
2453;DHT22;63678;47.994;7.854;2023-03-01T03:59:55;-0.10;99.90
2453;DHT22;63678;47.994;7.854;2023-03-01T04:02:27;-0.20;99.90
2453;DHT22;63678;47.994;7.854;2023-03-01T04:05:01;-0.10;99.90
2453;DHT22;63678;47.994;7.854;2023-03-01T04:07:35;-0.10;99.90
2453;DHT22;63678;47.994;7.854;2023-03-01T04:10:17;-0.10;99.90
2453;DHT22;63678;47.994;7.854;2023-03-01T04:12:49;-0.10;99.90
2453;DHT22;63678;47.994;7.854;2023-03-01T04:15:22;-0.20;99.90
2453;DHT22;63678;47.994;7.854;2023-03-01T04:17:56;-0.20;99.90
2453;DHT22;63678;47.994;7.854;2023-03-01T04:20:30;-0.20;99.90
2453;DHT22;63678;47.994;7.854;2023-03-01T04:23:20;-0.20;99.90
2453;DHT22;63678;47.994;7.854;2023-03-01T04:25:55;-0.30;99.90
2453;DHT22;63678;47.994;7.854;2023-03-01T04:28:35;-0.20;99.90
2453;DHT22;63678;47.994;7.854;2023-03-01T04:31:12;-0.40;99.90
2453;DHT22;63678;47.994;7.854;2023-03-01T04:33:51;-0.20;99.90
2453;DHT22;63678;47.994;7.854;2023-03-01T04:36:26;-0.20;99.90
2453;DHT22;63678;47.994;7.854;2023-03-01T04:39:21;0.00;99.90
2453;DHT22;63678;47.994;7.854;2023-03-01T04:41:54;0.00;99.90
2453;DHT22;63678;47.994;7.854;2023-03-01T04:49:32;0.20;99.90
2453;DHT22;63678;47.994;7.854;2023-03-01T04:52:04;0.20;99.90
2453;DHT22;63678;47.994;7.854;2023-03-01T04:54:37;0.20;99.90
2453;DHT22;63678;47.994;7.854;2023-03-01T04:57:09;0.20;99.90
2453;DHT22;63678;47.994;7.854;2023-03-01T04:59:42;0.20;99.90
2453;DHT22;63678;47.994;7.854;2023-03-01T05:02:15;0.20;99.90
2453;DHT22;63678;47.994;7.854;2023-03-01T05:04:47;0.10;99.90
2453;DHT22;63678;47.994;7.854;2023-03-01T05:07:20;0.20;99.90
2453;DHT22;63678;47.994;7.854;2023-03-01T05:09:55;0.10;99.90
2453;DHT22;63678;47.994;7.854;2023-03-01T05:12:29;3.10;99.90
2453;DHT22;63678;47.994;7.854;2023-03-01T05:15:01;3.60;99.90
2453;DHT22;63678;47.994;7.854;2023-03-01T05:17:38;1.50;99.90
2453;DHT22;63678;47.994;7.854;2023-03-01T05:20:11;1.00;99.90
2453;DHT22;63678;47.994;7.854;2023-03-01T05:22:43;0.70;99.90
2453;DHT22;63678;47.994;7.854;2023-03-01T05:25:16;0.60;99.90
2453;DHT22;63678;47.994;7.854;2023-03-01T05:30:21;0.50;99.90
2453;DHT22;63678;47.994;7.854;2023-03-01T05:32:57;0.30;99.90
2453;DHT22;63678;47.994;7.854;2023-03-01T05:35:28;0.40;99.90
2453;DHT22;63678;47.994;7.854;2023-03-01T05:38:01;0.40;99.90
2453;DHT22;63678;47.994;7.854;2023-03-01T05:40:36;0.40;99.90
2453;DHT22;63678;47.994;7.854;2023-03-01T05:43:08;0.40;99.90
2453;DHT22;63678;47.994;7.854;2023-03-01T05:45:42;0.40;99.90
2453;DHT22;63678;47.994;7.854;2023-03-01T05:48:15;0.40;99.90
2453;DHT22;63678;47.994;7.854;2023-03-01T05:50:47;0.20;99.90
2453;DHT22;63678;47.994;7.854;2023-03-01T05:53:20;0.20;99.90
2453;DHT22;63678;47.994;7.854;2023-03-01T05:55:53;0.20;99.90
2453;DHT22;63678;47.994;7.854;2023-03-01T05:58:25;0.20;99.90
2453;DHT22;63678;47.994;7.854;2023-03-01T06:00:58;0.20;99.90
2453;DHT22;63678;47.994;7.854;2023-03-01T06:03:34;0.20;99.90
2453;DHT22;63678;47.994;7.854;2023-03-01T06:06:06;0.20;99.90
2453;DHT22;63678;47.994;7.854;2023-03-01T06:08:38;0.20;99.90
2453;DHT22;63678;47.994;7.854;2023-03-01T06:11:11;0.20;99.90
2453;DHT22;63678;47.994;7.854;2023-03-01T06:13:44;0.30;99.90
2453;DHT22;63678;47.994;7.854;2023-03-01T06:16:17;0.20;99.90
2453;DHT22;63678;47.994;7.854;2023-03-01T06:18:50;0.20;99.90
2453;DHT22;63678;47.994;7.854;2023-03-01T06:21:23;0.20;99.90
2453;DHT22;63678;47.994;7.854;2023-03-01T06:23:55;0.20;99.90
2453;DHT22;63678;47.994;7.854;2023-03-01T06:26:49;0.20;99.90
2453;DHT22;63678;47.994;7.854;2023-03-01T06:29:21;0.20;99.90
2453;DHT22;63678;47.994;7.854;2023-03-01T06:31:54;0.20;99.90
2453;DHT22;63678;47.994;7.854;2023-03-01T06:34:48;0.20;99.90
2453;DHT22;63678;47.994;7.854;2023-03-01T06:37:21;0.30;99.90
2453;DHT22;63678;47.994;7.854;2023-03-01T06:42:26;0.30;99.90
2453;DHT22;63678;47.994;7.854;2023-03-01T06:44:59;0.30;99.90
2453;DHT22;63678;47.994;7.854;2023-03-01T06:47:33;0.40;99.90
2453;DHT22;63678;47.994;7.854;2023-03-01T06:50:05;0.30;99.90
2453;DHT22;63678;47.994;7.854;2023-03-01T06:52:38;0.40;99.90
2453;DHT22;63678;47.994;7.854;2023-03-01T06:55:12;0.40;99.90
2453;DHT22;63678;47.994;7.854;2023-03-01T06:57:45;0.50;99.90
2453;DHT22;63678;47.994;7.854;2023-03-01T07:00:18;0.50;99.90
2453;DHT22;63678;47.994;7.854;2023-03-01T07:02:59;0.50;99.90
2453;DHT22;63678;47.994;7.854;2023-03-01T07:05:33;0.50;99.90
2453;DHT22;63678;47.994;7.854;2023-03-01T07:08:06;0.60;99.90
2453;DHT22;63678;47.994;7.854;2023-03-01T07:10:39;0.60;99.90
2453;DHT22;63678;47.994;7.854;2023-03-01T07:15:45;0.60;99.90
2453;DHT22;63678;47.994;7.854;2023-03-01T07:18:19;0.70;99.90
2453;DHT22;63678;47.994;7.854;2023-03-01T07:20:52;0.70;99.90
2453;DHT22;63678;47.994;7.854;2023-03-01T07:23:47;0.70;99.90
2453;DHT22;63678;47.994;7.854;2023-03-01T07:26:21;0.70;99.90
2453;DHT22;63678;47.994;7.854;2023-03-01T07:28:55;0.80;99.90
2453;DHT22;63678;47.994;7.854;2023-03-01T07:31:31;0.80;99.90
2453;DHT22;63678;47.994;7.854;2023-03-01T07:36:58;0.80;99.90
2453;DHT22;63678;47.994;7.854;2023-03-01T07:42:04;0.80;99.90
2453;DHT22;63678;47.994;7.854;2023-03-01T07:44:37;0.80;99.90
2453;DHT22;63678;47.994;7.854;2023-03-01T07:47:10;0.80;99.90
2453;DHT22;63678;47.994;7.854;2023-03-01T07:49:43;1.00;99.90
2453;DHT22;63678;47.994;7.854;2023-03-01T07:52:18;1.00;99.90
2453;DHT22;63678;47.994;7.854;2023-03-01T07:54:50;5.30;99.90
2453;DHT22;63678;47.994;7.854;2023-03-01T07:57:24;3.60;99.90
2453;DHT22;63678;47.994;7.854;2023-03-01T07:59:56;2.70;99.90
2453;DHT22;63678;47.994;7.854;2023-03-01T08:02:30;2.10;99.90
2453;DHT22;63678;47.994;7.854;2023-03-01T08:05:03;1.70;99.90
2453;DHT22;63678;47.994;7.854;2023-03-01T08:07:56;1.50;99.90
2453;DHT22;63678;47.994;7.854;2023-03-01T08:10:28;1.40;99.90
2453;DHT22;63678;47.994;7.854;2023-03-01T08:13:00;1.40;99.90
2453;DHT22;63678;47.994;7.854;2023-03-01T08:15:33;1.30;99.90
2453;DHT22;63678;47.994;7.854;2023-03-01T08:20:40;1.30;99.90
2453;DHT22;63678;47.994;7.854;2023-03-01T08:23:13;1.30;99.90
2453;DHT22;63678;47.994;7.854;2023-03-01T08:25:48;1.30;99.90
2453;DHT22;63678;47.994;7.854;2023-03-01T08:31:31;1.50;99.90
2453;DHT22;63678;47.994;7.854;2023-03-01T08:34:10;1.50;99.90
2453;DHT22;63678;47.994;7.854;2023-03-01T08:36:49;1.50;99.90
2453;DHT22;63678;47.994;7.854;2023-03-01T08:39:46;1.70;99.90
2453;DHT22;63678;47.994;7.854;2023-03-01T08:42:41;1.80;99.90
2453;DHT22;63678;47.994;7.854;2023-03-01T08:45:16;1.80;99.90
2453;DHT22;63678;47.994;7.854;2023-03-01T08:47:52;1.80;99.90
2453;DHT22;63678;47.994;7.854;2023-03-01T08:50:25;1.90;99.90
2453;DHT22;63678;47.994;7.854;2023-03-01T08:53:00;1.90;99.90
2453;DHT22;63678;47.994;7.854;2023-03-01T08:55:32;1.90;99.90
2453;DHT22;63678;47.994;7.854;2023-03-01T08:58:04;1.90;99.90
2453;DHT22;63678;47.994;7.854;2023-03-01T09:00:36;2.00;99.90
2453;DHT22;63678;47.994;7.854;2023-03-01T09:06:04;2.10;99.90
2453;DHT22;63678;47.994;7.854;2023-03-01T09:08:58;2.20;99.90
2453;DHT22;63678;47.994;7.854;2023-03-01T09:11:55;2.30;99.90
2453;DHT22;63678;47.994;7.854;2023-03-01T09:14:45;2.30;99.90
2453;DHT22;63678;47.994;7.854;2023-03-01T09:17:17;2.40;99.90
2453;DHT22;63678;47.994;7.854;2023-03-01T09:22:46;2.60;99.90
2453;DHT22;63678;47.994;7.854;2023-03-01T09:25:19;2.60;99.90
2453;DHT22;63678;47.994;7.854;2023-03-01T09:27:53;2.70;99.90
2453;DHT22;63678;47.994;7.854;2023-03-01T09:30:26;2.60;99.90
2453;DHT22;63678;47.994;7.854;2023-03-01T09:32:59;2.70;99.90
2453;DHT22;63678;47.994;7.854;2023-03-01T09:35:33;2.80;99.90
2453;DHT22;63678;47.994;7.854;2023-03-01T09:38:05;2.90;99.90
2453;DHT22;63678;47.994;7.854;2023-03-01T09:40:42;3.00;99.90
2453;DHT22;63678;47.994;7.854;2023-03-01T09:46:21;3.20;99.90
2453;DHT22;63678;47.994;7.854;2023-03-01T09:49:27;3.20;99.90
2453;DHT22;63678;47.994;7.854;2023-03-01T09:52:19;3.20;99.90
2453;DHT22;63678;47.994;7.854;2023-03-01T09:54:56;3.30;99.90
2453;DHT22;63678;47.994;7.854;2023-03-01T09:57:43;3.40;99.90
2453;DHT22;63678;47.994;7.854;2023-03-01T10:00:36;3.50;99.90
2453;DHT22;63678;47.994;7.854;2023-03-01T10:03:42;3.60;99.90
2453;DHT22;63678;47.994;7.854;2023-03-01T10:06:21;3.70;99.90
2453;DHT22;63678;47.994;7.854;2023-03-01T10:09:11;3.70;99.90
2453;DHT22;63678;47.994;7.854;2023-03-01T10:11:50;3.70;99.90
2453;DHT22;63678;47.994;7.854;2023-03-01T10:18:18;4.00;99.90
2453;DHT22;63678;47.994;7.854;2023-03-01T10:21:00;4.40;99.90
2453;DHT22;63678;47.994;7.854;2023-03-01T10:23:34;5.10;99.90
2453;DHT22;63678;47.994;7.854;2023-03-01T10:29:39;5.30;99.90
2453;DHT22;63678;47.994;7.854;2023-03-01T10:32:18;5.10;99.90
2453;DHT22;63678;47.994;7.854;2023-03-01T10:38:16;5.20;99.90
2453;DHT22;63678;47.994;7.854;2023-03-01T10:40:55;5.00;99.90
2453;DHT22;63678;47.994;7.854;2023-03-01T10:43:53;5.00;99.90
2453;DHT22;63678;47.994;7.854;2023-03-01T10:46:36;5.10;99.90
2453;DHT22;63678;47.994;7.854;2023-03-01T10:49:22;5.20;99.90
2453;DHT22;63678;47.994;7.854;2023-03-01T10:54:32;4.90;99.90
2453;DHT22;63678;47.994;7.854;2023-03-01T10:57:05;5.10;99.90
2453;DHT22;63678;47.994;7.854;2023-03-01T10:59:38;5.20;99.90
2453;DHT22;63678;47.994;7.854;2023-03-01T11:02:29;5.10;99.90
2453;DHT22;63678;47.994;7.854;2023-03-01T11:10:33;5.40;99.90
2453;DHT22;63678;47.994;7.854;2023-03-01T11:13:18;5.60;99.90
2453;DHT22;63678;47.994;7.854;2023-03-01T11:16:05;5.60;99.90
2453;DHT22;63678;47.994;7.854;2023-03-01T11:18:40;5.60;99.90
2453;DHT22;63678;47.994;7.854;2023-03-01T11:21:19;5.70;99.90
2453;DHT22;63678;47.994;7.854;2023-03-01T11:23:51;5.70;99.90
2453;DHT22;63678;47.994;7.854;2023-03-01T11:29:00;6.00;99.90
2453;DHT22;63678;47.994;7.854;2023-03-01T11:31:36;6.10;99.90
2453;DHT22;63678;47.994;7.854;2023-03-01T11:34:19;6.00;99.90
2453;DHT22;63678;47.994;7.854;2023-03-01T11:37:02;7.50;99.90
2453;DHT22;63678;47.994;7.854;2023-03-01T11:39:51;7.40;99.90
2453;DHT22;63678;47.994;7.854;2023-03-01T11:42:54;6.70;99.90
2453;DHT22;63678;47.994;7.854;2023-03-01T11:49:26;6.70;99.90
2453;DHT22;63678;47.994;7.854;2023-03-01T11:52:48;6.80;99.90
2453;DHT22;63678;47.994;7.854;2023-03-01T11:56:38;7.40;99.90
2453;DHT22;63678;47.994;7.854;2023-03-01T12:12:08;7.20;99.90
2453;DHT22;63678;47.994;7.854;2023-03-01T12:24:39;7.60;99.90
2453;DHT22;63678;47.994;7.854;2023-03-01T12:40:43;8.60;99.90
2453;DHT22;63678;47.994;7.854;2023-03-01T12:43:58;8.50;99.90
2453;DHT22;63678;47.994;7.854;2023-03-01T12:47:18;8.70;99.90
2453;DHT22;63678;47.994;7.854;2023-03-01T12:50:14;8.50;99.90
2453;DHT22;63678;47.994;7.854;2023-03-01T12:52:53;8.40;99.90
2453;DHT22;63678;47.994;7.854;2023-03-01T12:55:34;8.50;99.90
2453;DHT22;63678;47.994;7.854;2023-03-01T13:07:41;9.10;99.90
2453;DHT22;63678;47.994;7.854;2023-03-01T13:10:40;9.30;99.90
2453;DHT22;63678;47.994;7.854;2023-03-01T13:13:24;8.80;99.90
2453;DHT22;63678;47.994;7.854;2023-03-01T13:15:57;9.50;99.90
2453;DHT22;63678;47.994;7.854;2023-03-01T13:19:13;9.70;99.90
2453;DHT22;63678;47.994;7.854;2023-03-01T13:21:54;9.70;99.90
2453;DHT22;63678;47.994;7.854;2023-03-01T13:24:41;9.90;99.90
2453;DHT22;63678;47.994;7.854;2023-03-01T13:27:21;9.60;99.90
2453;DHT22;63678;47.994;7.854;2023-03-01T13:29:58;9.90;99.90
2453;DHT22;63678;47.994;7.854;2023-03-01T13:32:38;10.20;99.90
2453;DHT22;63678;47.994;7.854;2023-03-01T13:37:51;10.00;99.90
2453;DHT22;63678;47.994;7.854;2023-03-01T13:42:55;9.10;99.90
2453;DHT22;63678;47.994;7.854;2023-03-01T13:45:42;9.30;99.90
2453;DHT22;63678;47.994;7.854;2023-03-01T13:51:01;8.80;99.90
2453;DHT22;63678;47.994;7.854;2023-03-01T13:53:46;8.80;99.90
2453;DHT22;63678;47.994;7.854;2023-03-01T13:56:24;8.60;99.90
2453;DHT22;63678;47.994;7.854;2023-03-01T13:59:01;8.50;99.90
2453;DHT22;63678;47.994;7.854;2023-03-01T14:04:30;8.20;99.90
2453;DHT22;63678;47.994;7.854;2023-03-01T14:07:19;8.30;99.90
2453;DHT22;63678;47.994;7.854;2023-03-01T14:09:56;8.40;99.90
2453;DHT22;63678;47.994;7.854;2023-03-01T14:12:52;8.70;99.90
2453;DHT22;63678;47.994;7.854;2023-03-01T14:15:37;8.70;99.90
2453;DHT22;63678;47.994;7.854;2023-03-01T14:18:23;8.70;99.90
2453;DHT22;63678;47.994;7.854;2023-03-01T14:21:08;8.80;99.90
2453;DHT22;63678;47.994;7.854;2023-03-01T14:23:41;8.70;99.90
2453;DHT22;63678;47.994;7.854;2023-03-01T14:26:21;8.60;99.90
2453;DHT22;63678;47.994;7.854;2023-03-01T14:31:38;8.70;99.90
2453;DHT22;63678;47.994;7.854;2023-03-01T14:34:24;8.80;99.90
2453;DHT22;63678;47.994;7.854;2023-03-01T14:39:41;9.00;99.90
2453;DHT22;63678;47.994;7.854;2023-03-01T14:42:13;9.10;99.90
2453;DHT22;63678;47.994;7.854;2023-03-01T14:44:48;9.00;99.90
2453;DHT22;63678;47.994;7.854;2023-03-01T14:47:29;9.10;99.90
2453;DHT22;63678;47.994;7.854;2023-03-01T14:50:21;9.10;99.90
2453;DHT22;63678;47.994;7.854;2023-03-01T14:52:57;9.00;99.90
2453;DHT22;63678;47.994;7.854;2023-03-01T14:55:37;8.90;99.90
2453;DHT22;63678;47.994;7.854;2023-03-01T14:58:14;8.90;99.90
2453;DHT22;63678;47.994;7.854;2023-03-01T15:03:36;8.90;99.90
2453;DHT22;63678;47.994;7.854;2023-03-01T15:06:10;8.70;99.90
2453;DHT22;63678;47.994;7.854;2023-03-01T15:08:49;8.70;99.90
2453;DHT22;63678;47.994;7.854;2023-03-01T15:11:27;8.60;99.90
2453;DHT22;63678;47.994;7.854;2023-03-01T15:14:40;8.60;99.90
2453;DHT22;63678;47.994;7.854;2023-03-01T15:17:34;8.50;99.90
2453;DHT22;63678;47.994;7.854;2023-03-01T15:20:19;8.40;99.90
2453;DHT22;63678;47.994;7.854;2023-03-01T15:22:58;8.30;99.90
2453;DHT22;63678;47.994;7.854;2023-03-01T15:25:32;8.30;99.90
2453;DHT22;63678;47.994;7.854;2023-03-01T15:35:52;8.50;99.90
2453;DHT22;63678;47.994;7.854;2023-03-01T15:41:04;8.30;99.90
2453;DHT22;63678;47.994;7.854;2023-03-01T15:43:53;8.30;99.90
2453;DHT22;63678;47.994;7.854;2023-03-01T15:46:32;8.20;99.90
2453;DHT22;63678;47.994;7.854;2023-03-01T15:49:25;8.10;99.90
2453;DHT22;63678;47.994;7.854;2023-03-01T15:52:06;8.10;99.90
2453;DHT22;63678;47.994;7.854;2023-03-01T15:55:03;8.00;99.90
2453;DHT22;63678;47.994;7.854;2023-03-01T15:58:13;7.90;99.90
2453;DHT22;63678;47.994;7.854;2023-03-01T16:00:48;7.80;99.90
2453;DHT22;63678;47.994;7.854;2023-03-01T16:03:35;7.70;99.90
2453;DHT22;63678;47.994;7.854;2023-03-01T16:06:09;7.70;99.90
2453;DHT22;63678;47.994;7.854;2023-03-01T16:08:42;7.60;99.90
2453;DHT22;63678;47.994;7.854;2023-03-01T16:11:19;7.70;99.90
2453;DHT22;63678;47.994;7.854;2023-03-01T16:13:52;7.60;99.90
2453;DHT22;63678;47.994;7.854;2023-03-01T16:16:24;7.60;99.90
2453;DHT22;63678;47.994;7.854;2023-03-01T16:18:57;7.60;99.90
2453;DHT22;63678;47.994;7.854;2023-03-01T16:21:29;7.50;99.90
2453;DHT22;63678;47.994;7.854;2023-03-01T16:24:02;7.40;99.90
2453;DHT22;63678;47.994;7.854;2023-03-01T16:26:36;7.40;99.90
2453;DHT22;63678;47.994;7.854;2023-03-01T16:29:09;7.30;99.90
2453;DHT22;63678;47.994;7.854;2023-03-01T16:34:18;7.20;99.90
2453;DHT22;63678;47.994;7.854;2023-03-01T16:36:53;7.20;99.90
2453;DHT22;63678;47.994;7.854;2023-03-01T16:39:25;7.20;99.90
2453;DHT22;63678;47.994;7.854;2023-03-01T16:42:00;7.10;99.90
2453;DHT22;63678;47.994;7.854;2023-03-01T16:47:05;7.10;99.90
2453;DHT22;63678;47.994;7.854;2023-03-01T16:49:37;7.00;99.90
2453;DHT22;63678;47.994;7.854;2023-03-01T16:54:43;7.10;99.90
2453;DHT22;63678;47.994;7.854;2023-03-01T16:57:15;7.00;99.90
2453;DHT22;63678;47.994;7.854;2023-03-01T16:59:51;7.00;99.90
2453;DHT22;63678;47.994;7.854;2023-03-01T17:02:25;7.00;99.90
2453;DHT22;63678;47.994;7.854;2023-03-01T17:04:58;7.00;99.90
2453;DHT22;63678;47.994;7.854;2023-03-01T17:07:31;7.00;99.90
2453;DHT22;63678;47.994;7.854;2023-03-01T17:10:09;7.00;99.90
2453;DHT22;63678;47.994;7.854;2023-03-01T17:12:42;7.00;99.90
2453;DHT22;63678;47.994;7.854;2023-03-01T17:15:14;7.10;99.90
2453;DHT22;63678;47.994;7.854;2023-03-01T17:17:47;7.10;99.90
2453;DHT22;63678;47.994;7.854;2023-03-01T17:20:22;7.10;99.90
2453;DHT22;63678;47.994;7.854;2023-03-01T17:22:55;7.00;99.90
2453;DHT22;63678;47.994;7.854;2023-03-01T17:25:27;7.10;99.90
2453;DHT22;63678;47.994;7.854;2023-03-01T17:28:00;7.00;99.90
2453;DHT22;63678;47.994;7.854;2023-03-01T17:30:32;7.00;99.90
2453;DHT22;63678;47.994;7.854;2023-03-01T17:33:04;6.80;99.90
2453;DHT22;63678;47.994;7.854;2023-03-01T17:35:37;6.80;99.90
2453;DHT22;63678;47.994;7.854;2023-03-01T17:40:43;6.50;99.90
2453;DHT22;63678;47.994;7.854;2023-03-01T17:43:19;6.60;99.90
2453;DHT22;63678;47.994;7.854;2023-03-01T17:45:51;6.60;99.90
2453;DHT22;63678;47.994;7.854;2023-03-01T17:48:25;6.40;99.90
2453;DHT22;63678;47.994;7.854;2023-03-01T17:50:58;6.50;99.90
2453;DHT22;63678;47.994;7.854;2023-03-01T17:56:04;6.30;99.90
2453;DHT22;63678;47.994;7.854;2023-03-01T17:58:38;6.20;99.90
2453;DHT22;63678;47.994;7.854;2023-03-01T18:01:16;6.20;99.90
2453;DHT22;63678;47.994;7.854;2023-03-01T18:03:51;6.10;99.90
2453;DHT22;63678;47.994;7.854;2023-03-01T18:06:25;6.10;99.90
2453;DHT22;63678;47.994;7.854;2023-03-01T18:08:59;6.00;99.90
2453;DHT22;63678;47.994;7.854;2023-03-01T18:11:32;6.00;99.90
2453;DHT22;63678;47.994;7.854;2023-03-01T18:14:06;6.00;99.90
2453;DHT22;63678;47.994;7.854;2023-03-01T18:16:39;6.10;99.90
2453;DHT22;63678;47.994;7.854;2023-03-01T18:19:11;6.00;99.90
2453;DHT22;63678;47.994;7.854;2023-03-01T18:21:44;6.00;99.90
2453;DHT22;63678;47.994;7.854;2023-03-01T18:26:48;6.00;99.90
2453;DHT22;63678;47.994;7.854;2023-03-01T18:31:53;6.00;99.90
2453;DHT22;63678;47.994;7.854;2023-03-01T18:34:26;6.00;99.90
2453;DHT22;63678;47.994;7.854;2023-03-01T18:37:00;6.00;99.90
2453;DHT22;63678;47.994;7.854;2023-03-01T18:39:41;5.90;99.90
2453;DHT22;63678;47.994;7.854;2023-03-01T18:42:13;5.90;99.90
2453;DHT22;63678;47.994;7.854;2023-03-01T18:47:20;5.70;99.90
2453;DHT22;63678;47.994;7.854;2023-03-01T18:52:24;5.70;99.90
2453;DHT22;63678;47.994;7.854;2023-03-01T18:57:29;4.90;99.90
2453;DHT22;63678;47.994;7.854;2023-03-01T19:00:03;5.50;99.90
2453;DHT22;63678;47.994;7.854;2023-03-01T19:02:35;5.50;99.90
2453;DHT22;63678;47.994;7.854;2023-03-01T19:05:08;5.60;99.90
2453;DHT22;63678;47.994;7.854;2023-03-01T19:07:40;5.50;99.90
2453;DHT22;63678;47.994;7.854;2023-03-01T19:10:12;5.60;99.90
2453;DHT22;63678;47.994;7.854;2023-03-01T19:12:45;5.60;99.90
2453;DHT22;63678;47.994;7.854;2023-03-01T19:15:17;5.60;99.90
2453;DHT22;63678;47.994;7.854;2023-03-01T19:17:50;5.60;99.90
2453;DHT22;63678;47.994;7.854;2023-03-01T19:20:25;5.50;99.90
2453;DHT22;63678;47.994;7.854;2023-03-01T19:22:57;5.50;99.90
2453;DHT22;63678;47.994;7.854;2023-03-01T19:30:36;5.30;99.90
2453;DHT22;63678;47.994;7.854;2023-03-01T19:33:10;6.10;99.90
2453;DHT22;63678;47.994;7.854;2023-03-01T19:35:42;5.60;99.90
2453;DHT22;63678;47.994;7.854;2023-03-01T19:38:14;5.60;99.90
2453;DHT22;63678;47.994;7.854;2023-03-01T19:40:47;5.30;99.90
2453;DHT22;63678;47.994;7.854;2023-03-01T19:43:19;5.20;99.90
2453;DHT22;63678;47.994;7.854;2023-03-01T19:45:53;5.10;99.90
2453;DHT22;63678;47.994;7.854;2023-03-01T19:48:26;5.10;99.90
2453;DHT22;63678;47.994;7.854;2023-03-01T19:51:01;5.10;99.90
2453;DHT22;63678;47.994;7.854;2023-03-01T19:53:34;5.00;99.90
2453;DHT22;63678;47.994;7.854;2023-03-01T19:56:07;5.00;99.90
2453;DHT22;63678;47.994;7.854;2023-03-01T20:01:14;5.00;99.90
2453;DHT22;63678;47.994;7.854;2023-03-01T20:03:50;5.00;99.90
2453;DHT22;63678;47.994;7.854;2023-03-01T20:06:23;5.00;99.90